Covedale, Ohio
Current Conditions -  °F | °C
As of 7:14 PM on Wednesday 22 Oct 2014 (Local Time) from KI69 Reporting Station
Overcast Overcast  
Wind Chill: 52°   Ceiling: 2800
Heat Index: 52°   Visibility: 10mi
Dew Point: 41°   Wind: 6mph
Humidity: 67%   Direction: 10°N
Pressure: 30.26"   Gusts: NA
Location:  39.1091°N, 84.6112°W
Report Text: KI69 222314Z AUTO 01005KT 10SM OVC028 11/05 A3026 RMK AO1
Loading
Personal Weather Stations






























Interactive Weather Map
Tropical Storm Tracking
New forecast layout! Learn more

10-Day Weather Forecast

Advertisements
Track Severe Weather on mobile